Time;durP1;ratioP1;P1;durP2;ratioP2;P2;SDS_P1;SDS_P2;PMS_P1;PMS_P2;Temp;Humidity;BMP_temperature;BMP_pressure;BME280_temperature;BME280_humidity;BME280_pressure;Samples;Min_cycle;Max_cycle;Signal;HPM_P1;HPM_P2
2023/03/07 00:01:37;;;;;;;16.38;8.50;;;;;;;6.78;53.81;94024.63;5029328;28;20403;-80
2023/03/07 00:04:03;;;;;;;17.45;8.70;;;;;;;6.48;53.38;93937.59;5050302;28;20124;-79
2023/03/07 00:06:29;;;;;;;13.15;7.78;;;;;;;7.05;53.58;94024.19;5050931;28;20407;-80
2023/03/07 00:08:57;;;;;;;14.48;7.65;;;;;;;6.25;53.78;93901.56;5042351;28;20036;-80
2023/03/07 00:11:22;;;;;;;15.45;7.90;;;;;;;6.53;54.25;93950.94;5014331;28;20033;-80
2023/03/07 00:13:48;;;;;;;12.27;7.75;;;;;;;6.43;54.08;93944.88;5013553;28;20017;-78
2023/03/07 00:16:15;;;;;;;13.80;8.88;;;;;;;7.01;53.80;94025.34;4998091;28;20033;-80
2023/03/07 00:18:40;;;;;;;16.60;9.27;;;;;;;6.36;53.73;93938.59;5030790;28;20049;-80
2023/03/07 00:21:07;;;;;;;13.43;7.75;;;;;;;6.37;54.22;93925.53;5030952;28;20552;-80
2023/03/07 00:23:33;;;;;;;15.30;8.40;;;;;;;6.47;53.78;93925.66;5029563;28;20507;-80
2023/03/07 00:26:17;;;;;;;12.80;7.90;;;;;;;6.94;53.70;94011.31;5014819;28;20021;-80
2023/03/07 00:28:44;;;;;;;17.58;10.05;;;;;;;6.48;54.23;93927.28;5015229;28;20071;-80
2023/03/07 00:31:10;;;;;;;16.00;9.13;;;;;;;6.91;54.20;94007.22;5014398;28;20026;-80
2023/03/07 00:33:36;;;;;;;16.77;9.90;;;;;;;6.61;54.57;93999.38;5030868;28;20099;-81
2023/03/07 00:36:03;;;;;;;13.90;8.32;;;;;;;5.67;54.25;93859.75;5013754;28;20025;-80
2023/03/07 00:38:29;;;;;;;12.75;8.13;;;;;;;5.97;54.84;93927.91;5013311;28;20042;-80
2023/03/07 00:41:07;;;;;;;15.77;8.75;;;;;;;6.37;54.91;93979.72;5013876;28;20091;-80
2023/03/07 00:43:33;;;;;;;14.77;8.35;;;;;;;5.57;55.51;93866.56;5043394;28;20037;-80
2023/03/07 00:45:59;;;;;;;12.93;7.18;;;;;;;5.54;55.55;93852.19;5029600;28;20140;-80
2023/03/07 00:48:24;;;;;;;13.32;7.80;;;;;;;5.73;56.27;93885.03;5033237;28;20044;-80
2023/03/07 00:50:50;;;;;;;15.63;8.02;;;;;;;6.31;56.25;93961.34;5016386;28;20033;-79
2023/03/07 00:53:16;;;;;;;13.70;7.25;;;;;;;5.77;56.38;93891.59;5044857;28;20033;-80
2023/03/07 00:55:41;;;;;;;11.07;7.45;;;;;;;5.61;56.08;93834.47;5013753;28;20491;-79
2023/03/07 00:58:07;;;;;;;10.80;6.50;;;;;;;5.66;56.71;93854.75;5030058;28;20057;-80
2023/03/07 01:00:32;;;;;;;10.63;7.22;;;;;;;6.20;57.00;93944.94;5021674;28;20037;-80
2023/03/07 01:03:00;;;;;;;14.75;8.90;;;;;;;6.28;56.38;93966.75;5020078;28;20036;-81
2023/03/07 01:05:26;;;;;;;13.82;7.82;;;;;;;5.79;56.93;93902.63;5049714;28;20029;-80
2023/03/07 01:07:51;;;;;;;11.32;7.60;;;;;;;5.86;56.18;93897.78;5050503;28;20047;-81
2023/03/07 01:10:17;;;;;;;12.65;8.05;;;;;;;6.37;56.22;93973.75;5016722;28;20414;-80
2023/03/07 01:12:43;;;;;;;14.20;7.88;;;;;;;6.21;56.30;93933.72;5041376;28;20570;-80
2023/03/07 01:15:09;;;;;;;14.25;7.82;;;;;;;5.66;56.42;93858.13;5029868;28;20041;-80
2023/03/07 01:17:34;;;;;;;13.73;8.48;;;;;;;5.77;56.56;93886.44;5031040;28;20072;-81
2023/03/07 01:20:00;;;;;;;11.98;6.93;;;;;;;6.11;56.60;93909.59;5030946;28;20112;-79
2023/03/07 01:22:26;;;;;;;11.85;7.38;;;;;;;6.50;57.17;93982.16;5031281;28;20034;-80
2023/03/07 01:24:51;;;;;;;11.25;6.68;;;;;;;6.34;57.32;93977.41;5030576;28;20032;-79
2023/03/07 01:27:16;;;;;;;15.77;7.65;;;;;;;6.17;55.79;93945.19;5030051;28;20483;-80
2023/03/07 01:29:42;;;;;;;11.55;7.03;;;;;;;5.77;56.01;93886.44;5033399;28;20028;-79
2023/03/07 01:32:08;;;;;;;13.70;8.02;;;;;;;5.44;57.01;93878.78;5026506;28;20029;-80
2023/03/07 01:34:33;;;;;;;12.85;8.15;;;;;;;6.16;57.44;93994.34;5014397;28;20029;-80
2023/03/07 01:36:59;;;;;;;12.45;8.32;;;;;;;5.60;56.69;93887.78;5029569;28;20030;-80
2023/03/07 01:39:24;;;;;;;13.30;8.52;;;;;;;5.48;56.42;93896.44;5029433;28;20071;-79
2023/03/07 01:41:50;;;;;;;12.88;7.72;;;;;;;5.25;57.09;93880.19;5030284;28;20060;-80
2023/03/07 01:44:17;;;;;;;12.48;7.68;;;;;;;5.82;57.66;93941.03;5029297;28;20025;-79
2023/03/07 01:46:55;;;;;;;15.00;7.75;;;;;;;6.12;56.93;93967.13;4996459;28;20172;-80
2023/03/07 01:49:37;;;;;;;11.32;6.60;;;;;;;6.02;55.98;93943.84;5025669;28;20047;-80
2023/03/07 01:52:03;;;;;;;10.75;6.35;;;;;;;6.19;55.78;93956.22;5037718;28;20067;-80
2023/03/07 01:54:29;;;;;;;10.32;6.47;;;;;;;5.61;55.74;93831.91;5054514;28;20052;-80
2023/03/07 01:56:54;;;;;;;12.10;6.65;;;;;;;6.00;55.85;93882.06;5036074;28;20090;-81
2023/03/07 01:59:53;;;;;;;12.43;6.80;;;;;;;6.39;55.40;93941.72;5004042;28;20049;-81
2023/03/07 02:02:21;;;;;;;11.63;6.60;;;;;;;6.51;55.42;93945.09;5021895;28;20120;-81
2023/03/07 02:04:51;;;;;;;11.35;6.57;;;;;;;6.60;55.09;93939.19;5016915;28;20025;-80
2023/03/07 02:07:17;;;;;;;13.55;7.45;;;;;;;6.12;54.59;93859.63;5029355;28;20037;-80
2023/03/07 02:09:42;;;;;;;11.10;7.63;;;;;;;6.25;54.72;93877.53;5016634;28;20029;-79
2023/03/07 02:12:08;;;;;;;14.25;7.50;;;;;;;6.89;54.51;93964.41;5000180;28;20099;-80
2023/03/07 02:14:33;;;;;;;12.02;7.85;;;;;;;6.18;54.70;93868.66;5034218;28;20033;-79
2023/03/07 02:17:00;;;;;;;12.30;8.07;;;;;;;5.88;54.85;93840.94;5016447;28;20484;-80
2023/03/07 02:19:37;;;;;;;11.93;7.53;;;;;;;6.03;56.26;93938.56;5016613;28;20040;-80
2023/03/07 02:22:15;;;;;;;13.23;8.23;;;;;;;5.97;56.67;93925.34;5050972;28;20055;-80
2023/03/07 02:24:53;;;;;;;12.43;7.75;;;;;;;5.24;57.32;93833.97;5032259;28;20033;-80
2023/03/07 02:27:18;;;;;;;14.30;6.50;;;;;;;5.52;57.09;93861.78;5016722;28;20051;-80
2023/03/07 02:29:44;;;;;;;10.40;6.22;;;;;;;6.04;56.84;93923.91;5032767;28;20517;-79
2023/03/07 02:32:09;;;;;;;10.23;6.20;;;;;;;5.50;56.50;93826.78;5032611;28;20040;-81
2023/03/07 02:34:35;;;;;;;13.13;6.78;;;;;;;5.85;56.38;93866.97;5016006;28;20042;-81
2023/03/07 02:37:05;;;;;;;8.35;5.43;;;;;;;5.76;55.99;93829.84;5032433;28;20034;-80
2023/03/07 02:39:30;;;;;;;10.30;6.47;;;;;;;5.95;55.83;93848.09;5032584;28;20226;-81
2023/03/07 02:42:05;;;;;;;12.80;7.63;;;;;;;6.19;55.84;93872.88;5016095;28;20041;-81
2023/03/07 02:44:31;;;;;;;15.50;9.52;;;;;;;5.92;56.01;93839.78;5034166;28;20082;-80
2023/03/07 02:46:56;;;;;;;12.82;8.57;;;;;;;6.48;56.37;93927.28;5019944;28;20033;-81
2023/03/07 02:49:22;;;;;;;12.45;8.55;;;;;;;5.81;56.15;93840.63;5051036;28;20029;-81
2023/03/07 02:51:47;;;;;;;13.25;8.30;;;;;;;5.84;56.37;93830.06;5048916;28;20037;-81
2023/03/07 02:54:13;;;;;;;14.02;7.68;;;;;;;6.09;55.40;93869.41;5041798;28;20507;-80
2023/03/07 02:56:39;;;;;;;13.13;8.18;;;;;;;6.40;55.49;93937.38;5034790;28;20572;-80
2023/03/07 02:59:04;;;;;;;11.80;7.50;;;;;;;6.14;55.70;93896.44;5050733;28;20506;-81
2023/03/07 03:01:30;;;;;;;12.07;7.32;;;;;;;5.87;55.63;93849.63;5047132;28;20060;-80
2023/03/07 03:03:55;;;;;;;12.90;7.45;;;;;;;5.81;55.86;93853.50;5015257;28;20033;-81
2023/03/07 03:06:21;;;;;;;10.45;6.75;;;;;;;5.09;57.35;93776.72;5015565;28;20105;-81
2023/03/07 03:08:46;;;;;;;10.98;6.75;;;;;;;5.86;57.67;93900.38;4999138;28;20038;-80
2023/03/07 03:11:12;;;;;;;10.02;6.47;;;;;;;5.64;57.75;93865.16;5015648;28;20026;-80
2023/03/07 03:13:38;;;;;;;19.55;9.50;;;;;;;5.75;57.54;93875.44;5003684;28;20041;-80
2023/03/07 03:16:03;;;;;;;14.63;8.93;;;;;;;5.75;57.57;93861.72;5032853;28;20021;-81
2023/03/07 03:18:29;;;;;;;12.20;7.60;;;;;;;5.74;57.02;93860.91;5032029;28;20396;-80
2023/03/07 03:20:54;;;;;;;12.48;7.45;;;;;;;5.80;57.17;93865.59;5050479;28;20029;-80
2023/03/07 03:23:20;;;;;;;12.40;6.82;;;;;;;5.76;57.06;93853.88;5022242;28;20187;-81
2023/03/07 03:25:45;;;;;;;11.75;6.80;;;;;;;5.81;57.29;93861.25;5030932;28;20033;-81
2023/03/07 03:28:12;;;;;;;14.30;9.07;;;;;;;5.60;58.07;93838.00;5019586;28;20041;-80
2023/03/07 03:30:39;;;;;;;13.05;7.13;;;;;;;6.14;58.16;93937.72;5047712;28;20030;-80
2023/03/07 03:33:04;;;;;;;13.80;6.68;;;;;;;6.09;57.74;93919.19;5011510;28;20513;-81
2023/03/07 03:35:30;;;;;;;11.02;6.75;;;;;;;6.30;57.84;93954.56;5046681;28;20025;-78
2023/03/07 03:37:55;;;;;;;12.00;6.38;;;;;;;6.00;58.16;93905.28;5047132;28;20039;-81
2023/03/07 03:40:21;;;;;;;11.98;6.88;;;;;;;5.44;57.45;93812.63;5046745;28;20479;-81
2023/03/07 03:42:46;;;;;;;11.95;6.70;;;;;;;5.44;57.70;93835.00;5013563;28;20057;-81
2023/03/07 03:45:13;;;;;;;10.60;5.78;;;;;;;5.53;57.94;93862.59;5045126;28;20018;-80
2023/03/07 03:47:39;;;;;;;10.77;6.70;;;;;;;5.79;58.00;93896.63;5041224;28;20030;-80
2023/03/07 03:50:05;;;;;;;17.63;7.82;;;;;;;5.34;58.01;93833.09;5030230;28;20036;-80
2023/03/07 03:52:30;;;;;;;10.82;6.90;;;;;;;5.54;58.06;93874.53;5028325;28;20029;-81
2023/03/07 03:54:56;;;;;;;12.40;6.97;;;;;;;5.26;58.53;93835.47;5047116;28;20111;-79
2023/03/07 03:57:21;;;;;;;12.82;6.97;;;;;;;5.94;58.56;93954.75;5027160;28;20152;-80
2023/03/07 03:59:47;;;;;;;14.23;8.07;;;;;;;5.91;59.19;93961.88;5041453;28;20052;-81
2023/03/07 04:02:13;;;;;;;17.42;9.70;;;;;;;5.68;58.58;93915.50;5039734;28;20118;-81
2023/03/07 04:04:38;;;;;;;16.95;10.45;;;;;;;5.87;58.88;93932.94;5023416;28;20404;-81
2023/03/07 04:07:04;;;;;;;19.45;10.02;;;;;;;5.25;59.49;93869.06;5033789;28;20472;-80
2023/03/07 04:09:32;;;;;;;18.17;8.95;;;;;;;5.74;59.23;93958.84;5029311;28;20045;-80
2023/03/07 04:11:58;;;;;;;18.60;10.73;;;;;;;5.78;59.28;93957.66;5012660;28;20028;-79
2023/03/07 04:14:23;;;;;;;16.80;9.55;;;;;;;5.36;59.41;93898.22;5046353;28;20055;-79
2023/03/07 04:16:49;;;;;;;17.85;10.25;;;;;;;5.46;59.10;93864.00;5024603;28;20072;-80
2023/03/07 04:19:14;;;;;;;17.48;10.10;;;;;;;5.99;59.46;93949.22;5045078;28;20419;-80
2023/03/07 04:21:40;;;;;;;20.13;9.02;;;;;;;5.88;59.08;93944.06;5011429;28;20033;-80
2023/03/07 04:24:06;;;;;;;14.50;8.77;;;;;;;6.00;59.26;93950.88;5027177;28;20107;-80
2023/03/07 04:26:32;;;;;;;16.27;8.65;;;;;;;5.86;59.35;93946.75;5025576;28;20026;-79
2023/03/07 04:28:58;;;;;;;14.73;9.30;;;;;;;5.21;60.48;93852.19;5043291;28;20028;-79
2023/03/07 04:31:24;;;;;;;21.33;9.10;;;;;;;5.16;60.08;93850.00;5046203;28;20017;-80
2023/03/07 04:33:50;;;;;;;15.40;8.55;;;;;;;5.36;59.80;93876.78;5046282;28;20040;-79
2023/03/07 04:36:16;;;;;;;16.70;9.45;;;;;;;5.81;59.91;93960.00;5026631;28;20033;-79
2023/03/07 04:38:42;;;;;;;14.23;7.60;;;;;;;5.78;59.58;93955.09;5027399;28;20553;-79
2023/03/07 04:41:10;;;;;;;14.18;7.80;;;;;;;5.20;59.69;93869.41;5027162;28;20052;-80
2023/03/07 04:43:35;;;;;;;19.25;8.25;;;;;;;5.20;60.11;93866.84;5030524;28;20108;-80
2023/03/07 04:46:01;;;;;;;14.00;8.05;;;;;;;5.19;60.08;93875.50;5041929;28;20029;-80
2023/03/07 04:48:26;;;;;;;16.80;8.32;;;;;;;5.14;60.55;93862.16;5024869;28;20037;-80
2023/03/07 04:50:52;;;;;;;13.07;8.32;;;;;;;5.37;60.54;93907.56;5043050;28;20052;-80
2023/03/07 04:53:18;;;;;;;168.75;45.92;;;;;;;5.78;60.73;93962.00;5022298;28;20038;-80
2023/03/07 04:55:43;;;;;;;68.53;25.13;;;;;;;5.30;60.59;93878.06;5024919;28;20034;-80
2023/03/07 04:58:11;;;;;;;68.30;32.97;;;;;;;5.69;60.21;93965.31;5023854;28;20055;-80
2023/03/07 05:00:41;;;;;;;57.55;27.33;;;;;;;5.18;60.02;93871.28;5043877;28;20048;-80
2023/03/07 05:03:07;;;;;;;37.17;19.08;;;;;;;5.82;59.85;93965.97;5027057;28;20102;-78
2023/03/07 05:05:33;;;;;;;103.70;42.10;;;;;;;5.83;59.89;93978.75;5044961;28;20036;-78
2023/03/07 05:07:58;;;;;;;55.83;25.05;;;;;;;5.76;60.12;93972.41;5047253;28;20040;-78
2023/03/07 05:10:24;;;;;;;19.85;11.80;;;;;;;5.80;61.07;93971.25;5045889;28;20040;-79
2023/03/07 05:12:49;;;;;;;15.60;8.95;;;;;;;5.52;61.33;93933.09;5043101;28;20037;-79
2023/03/07 05:15:15;;;;;;;18.55;9.57;;;;;;;5.36;60.79;93894.81;5046368;28;20036;-79
2023/03/07 05:17:40;;;;;;;24.80;14.75;;;;;;;5.11;60.30;93857.25;5045853;28;20037;-79
2023/03/07 05:20:09;;;;;;;19.38;11.60;;;;;;;4.99;60.53;93878.78;5046927;28;20033;-78
2023/03/07 05:22:34;;;;;;;18.38;10.27;;;;;;;5.76;60.46;93979.34;5044393;28;20033;-79
2023/03/07 05:25:00;;;;;;;16.38;9.07;;;;;;;5.95;60.64;94001.97;5046786;28;20025;-80
2023/03/07 05:27:25;;;;;;;27.25;15.00;;;;;;;5.36;60.49;93893.06;5045169;28;20051;-80
2023/03/07 05:29:51;;;;;;;16.92;10.15;;;;;;;5.51;60.49;93901.34;5045982;28;20087;-79
2023/03/07 05:32:16;;;;;;;21.92;12.45;;;;;;;5.48;60.76;93880.97;5041915;28;20120;-79
2023/03/07 05:34:44;;;;;;;16.63;9.93;;;;;;;5.33;60.21;93864.16;5047260;28;20025;-80
2023/03/07 05:37:09;;;;;;;18.40;9.75;;;;;;;5.47;59.82;93869.03;5045270;28;20488;-79
2023/03/07 05:39:35;;;;;;;14.95;9.43;;;;;;;5.53;60.02;93878.06;5042438;28;20036;-80
2023/03/07 05:42:00;;;;;;;20.45;10.73;;;;;;;6.24;60.43;93986.78;5045313;28;20530;-79
2023/03/07 05:44:26;;;;;;;20.38;10.80;;;;;;;5.93;60.53;93926.47;5046951;28;20067;-79
2023/03/07 05:46:51;;;;;;;20.75;11.35;;;;;;;5.78;60.40;93893.22;5043688;28;20072;-79
2023/03/07 05:49:17;;;;;;;22.35;12.15;;;;;;;6.58;59.73;93997.03;5046069;28;20096;-79
2023/03/07 05:51:43;;;;;;;19.38;11.23;;;;;;;6.65;59.84;94001.56;5044085;28;20037;-80
2023/03/07 05:54:08;;;;;;;21.70;11.63;;;;;;;6.04;59.30;93888.63;5043336;28;20107;-79
2023/03/07 05:56:34;;;;;;;16.10;10.95;;;;;;;6.24;58.97;93901.66;5028593;28;20024;-79
2023/03/07 05:59:00;;;;;;;22.60;12.32;;;;;;;6.87;58.54;94005.00;5039359;28;20045;-80
2023/03/07 06:01:26;;;;;;;25.42;13.25;;;;;;;6.43;58.67;93917.31;5043105;28;20021;-80
2023/03/07 06:03:51;;;;;;;43.88;14.68;;;;;;;7.04;58.40;94007.03;5043891;28;20493;-79
2023/03/07 06:06:17;;;;;;;44.10;15.18;;;;;;;6.62;57.63;93911.47;5045854;28;20092;-80
2023/03/07 06:08:42;;;;;;;22.50;12.52;;;;;;;6.56;56.82;93904.25;5040859;28;20513;-79
2023/03/07 06:11:08;;;;;;;28.58;11.82;;;;;;;7.38;56.71;94009.41;5046242;28;20025;-79
2023/03/07 06:13:34;;;;;;;28.95;13.80;;;;;;;7.47;56.56;94003.50;5027998;28;20041;-79
2023/03/07 06:15:59;;;;;;;16.35;9.73;;;;;;;6.97;55.83;93910.38;5046246;28;20032;-79
2023/03/07 06:18:25;;;;;;;14.98;9.48;;;;;;;8.19;54.05;93989.63;5047026;28;20045;-78
2023/03/07 06:20:57;;;;;;;21.20;15.38;;;;;;;9.39;50.09;93896.09;5044654;28;20058;-79
2023/03/07 06:23:24;;;;;;;15.93;10.60;;;;;;;11.28;46.30;93964.56;5044250;28;20040;-77
2023/03/07 06:25:50;;;;;;;16.17;9.60;;;;;;;11.60;45.14;94002.94;5044514;28;20017;-80
2023/03/07 06:28:15;;;;;;;15.73;9.63;;;;;;;11.46;43.74;94007.91;5035128;28;20041;-79
2023/03/07 06:30:41;;;;;;;14.95;8.95;;;;;;;12.17;42.28;93996.44;5043063;28;20028;-79
2023/03/07 06:33:06;;;;;;;14.75;8.77;;;;;;;13.11;40.00;93924.97;5045727;28;20040;-79
2023/03/07 06:35:32;;;;;;;12.07;7.05;;;;;;;13.62;38.24;93954.28;5046282;28;20502;-79
2023/03/07 06:37:57;;;;;;;12.52;7.07;;;;;;;11.74;41.27;93904.50;5045514;28;20117;-79
2023/03/07 06:40:23;;;;;;;11.60;7.30;;;;;;;11.33;43.43;94005.69;5049037;28;20325;-79
2023/03/07 06:42:50;;;;;;;11.35;7.47;;;;;;;10.22;44.67;93937.59;5042448;28;20490;-79
2023/03/07 06:45:16;;;;;;;12.77;7.45;;;;;;;10.41;45.06;93976.44;5048553;28;20112;-79
2023/03/07 06:47:41;;;;;;;10.63;7.05;;;;;;;10.34;45.86;94005.75;5047809;28;20032;-80
2023/03/07 06:50:07;;;;;;;13.18;7.57;;;;;;;11.79;42.26;93928.28;5047921;28;20029;-79
2023/03/07 06:52:33;;;;;;;12.15;7.90;;;;;;;14.30;37.81;93992.91;5046780;28;20036;-80
2023/03/07 06:54:59;;;;;;;13.13;7.07;;;;;;;13.98;37.30;93902.44;5052109;28;20029;-78
2023/03/07 06:57:25;;;;;;;10.50;7.00;;;;;;;15.01;36.12;94020.84;5053501;28;20033;-80
2023/03/07 06:59:50;;;;;;;10.02;7.55;;;;;;;14.08;37.97;93994.47;5052937;28;20048;-79
2023/03/07 07:02:16;;;;;;;11.93;7.88;;;;;;;14.85;35.94;93922.41;5052084;28;20056;-79
2023/03/07 07:04:41;;;;;;;12.07;8.05;;;;;;;15.38;35.41;93928.53;5052095;28;20458;-79
2023/03/07 07:07:07;;;;;;;11.68;7.40;;;;;;;15.85;34.89;94019.06;5048363;28;20030;-80
2023/03/07 07:09:33;;;;;;;15.02;8.18;;;;;;;15.30;35.47;93958.19;5045968;28;20101;-79
2023/03/07 07:11:58;;;;;;;11.90;7.28;;;;;;;14.29;36.91;93936.44;5046288;28;20075;-79
2023/03/07 07:14:24;;;;;;;9.77;6.63;;;;;;;14.33;38.26;94001.41;5049369;28;20071;-79
2023/03/07 07:16:49;;;;;;;12.73;7.22;;;;;;;14.76;37.70;94018.38;5033122;28;20041;-79
2023/03/07 07:19:15;;;;;;;10.43;6.43;;;;;;;12.87;39.84;93918.81;5032614;28;20036;-79
2023/03/07 07:21:40;;;;;;;9.23;6.75;;;;;;;12.47;40.71;93956.84;5033073;28;20060;-78
2023/03/07 07:24:06;;;;;;;8.98;6.65;;;;;;;11.97;42.78;94024.50;5045506;28;20516;-78
2023/03/07 07:26:32;;;;;;;11.45;7.28;;;;;;;10.84;44.49;93927.34;5032877;28;20079;-79
2023/03/07 07:28:57;;;;;;;10.63;7.15;;;;;;;10.10;46.00;93918.81;5044176;28;20103;-78
2023/03/07 07:31:23;;;;;;;9.50;6.28;;;;;;;10.69;46.41;94013.56;5049103;28;20032;-78
2023/03/07 07:33:48;;;;;;;13.27;6.97;;;;;;;9.67;47.46;93916.84;5051124;28;20055;-78
2023/03/07 07:36:14;;;;;;;14.60;7.10;;;;;;;9.20;48.70;93902.16;5031162;28;20458;-79
2023/03/07 07:38:39;;;;;;;10.43;5.90;;;;;;;9.33;48.31;93918.22;5039127;28;20506;-79
2023/03/07 07:41:05;;;;;;;11.00;6.65;;;;;;;9.56;48.31;93954.16;5049576;28;20578;-79
2023/03/07 07:43:30;;;;;;;8.63;6.03;;;;;;;9.14;48.46;93915.69;5032857;28;20061;-78
2023/03/07 07:45:56;;;;;;;9.95;6.63;;;;;;;9.94;47.68;94025.00;5032115;28;20510;-79
2023/03/07 07:48:21;;;;;;;11.32;6.82;;;;;;;9.10;48.98;93927.25;5031081;28;20567;-79
2023/03/07 07:50:47;;;;;;;14.60;6.35;;;;;;;11.00;45.37;94002.81;5030753;28;20028;-79
2023/03/07 07:53:12;;;;;;;12.65;6.32;;;;;;;9.91;46.71;93932.69;5031007;28;20034;-79
2023/03/07 07:55:38;;;;;;;13.02;6.25;;;;;;;10.21;47.20;94032.81;5030437;28;20128;-79
2023/03/07 07:58:03;;;;;;;10.98;6.57;;;;;;;10.15;48.10;94029.97;5028685;28;20053;-79
2023/03/07 08:00:29;;;;;;;10.70;7.05;;;;;;;9.66;47.72;93954.94;5030370;28;20025;-79
2023/03/07 08:02:55;;;;;;;14.63;7.72;;;;;;;9.67;47.60;93935.00;5031266;28;20037;-79
2023/03/07 08:05:21;;;;;;;10.88;7.47;;;;;;;9.90;47.50;93940.66;5032241;28;20069;-79
2023/03/07 08:07:47;;;;;;;15.02;7.53;;;;;;;9.76;47.53;93939.34;5014400;28;20041;-79
2023/03/07 08:10:15;;;;;;;11.35;7.13;;;;;;;10.60;46.98;94037.03;5030873;28;20113;-79
2023/03/07 08:12:45;;;;;;;11.50;7.70;;;;;;;10.61;46.67;94029.06;5032211;28;20036;-79
2023/03/07 08:15:11;;;;;;;10.70;7.38;;;;;;;9.97;46.65;93939.09;5030853;28;20033;-79
2023/03/07 08:17:37;;;;;;;13.80;7.55;;;;;;;10.12;46.67;93940.25;5032244;28;20034;-79
2023/03/07 08:20:08;;;;;;;11.45;7.57;;;;;;;10.39;46.52;93973.19;5032020;28;20522;-79
2023/03/07 08:22:35;;;;;;;11.43;7.30;;;;;;;10.24;46.93;93933.88;5030961;28;20057;-79
2023/03/07 08:25:01;;;;;;;11.52;7.65;;;;;;;9.87;47.44;93931.38;5031990;28;20116;-78
2023/03/07 08:27:26;;;;;;;10.85;7.50;;;;;;;10.56;47.51;94020.91;5032181;28;20026;-79
2023/03/07 08:29:52;;;;;;;10.38;7.45;;;;;;;10.09;47.65;93930.16;5030345;28;20036;-79
2023/03/07 08:32:17;;;;;;;14.63;6.90;;;;;;;10.18;47.40;93947.44;5031934;28;20456;-79
2023/03/07 08:34:43;;;;;;;24.60;14.63;;;;;;;10.22;47.81;93943.63;5031673;28;20030;-81
2023/03/07 08:37:09;;;;;;;11.02;6.65;;;;;;;10.23;47.45;93965.19;5030489;28;20526;-79
2023/03/07 08:39:35;;;;;;;10.23;6.13;;;;;;;10.18;47.27;93933.66;5030454;28;20108;-79
2023/03/07 08:42:00;;;;;;;10.73;6.50;;;;;;;10.72;47.22;94034.06;5031482;28;20034;-79
2023/03/07 08:44:26;;;;;;;12.32;6.20;;;;;;;10.73;47.44;94035.69;5030528;28;20034;-80
2023/03/07 08:46:51;;;;;;;10.48;6.75;;;;;;;10.69;47.04;94036.94;5031245;28;20079;-80
2023/03/07 08:49:17;;;;;;;10.02;5.80;;;;;;;10.02;46.97;93913.53;5030138;28;20034;-80
2023/03/07 08:51:42;;;;;;;10.85;7.00;;;;;;;10.04;47.22;93929.78;5031263;28;20030;-80
2023/03/07 08:54:08;;;;;;;17.35;7.22;;;;;;;10.22;47.81;93920.25;5030167;28;20037;-79
2023/03/07 08:56:33;;;;;;;18.52;10.63;;;;;;;11.08;47.79;94031.47;5029889;28;20021;-80
2023/03/07 08:58:59;;;;;;;13.65;8.13;;;;;;;11.46;47.40;94021.72;5030489;28;20419;-80
2023/03/07 09:01:24;;;;;;;13.25;8.10;;;;;;;11.18;46.75;93959.44;5030114;28;20025;-80
2023/03/07 09:03:50;;;;;;;18.30;8.32;;;;;;;11.41;46.50;93938.13;5031584;28;20032;-80
2023/03/07 09:06:17;;;;;;;13.35;7.90;;;;;;;12.17;45.43;94012.06;5031346;28;20152;-80
2023/03/07 09:08:42;;;;;;;10.02;6.32;;;;;;;11.48;44.62;93913.16;5030018;28;20418;-80
2023/03/07 09:11:08;;;;;;;9.40;6.30;;;;;;;11.47;44.27;93931.50;5030977;28;20085;-80
2023/03/07 09:13:33;;;;;;;11.02;6.43;;;;;;;12.00;43.90;94017.19;5031030;28;20039;-80
2023/03/07 09:15:59;;;;;;;11.20;6.72;;;;;;;11.42;44.07;93913.75;5029765;28;20025;-80
2023/03/07 09:18:24;;;;;;;15.25;6.53;;;;;;;11.59;44.06;93940.69;5031269;28;20029;-80
2023/03/07 09:20:50;;;;;;;9.82;6.47;;;;;;;11.49;43.94;93935.59;5031393;28;20053;-80
2023/03/07 09:23:15;;;;;;;9.13;5.97;;;;;;;11.53;43.76;93949.94;5031252;28;20025;-80
2023/03/07 09:25:43;;;;;;;9.23;5.88;;;;;;;11.64;43.72;93967.03;5030751;28;20033;-80
2023/03/07 09:28:08;;;;;;;10.38;6.07;;;;;;;10.89;44.53;93902.53;5030847;28;20030;-80
2023/03/07 09:30:34;;;;;;;12.27;6.50;;;;;;;11.04;44.56;93941.78;5031259;28;20407;-80
2023/03/07 09:32:59;;;;;;;9.95;6.07;;;;;;;10.95;45.24;93937.50;5030905;28;20472;-79
2023/03/07 09:35:25;;;;;;;9.32;5.43;;;;;;;10.96;44.90;93918.34;5029685;28;20029;-81
2023/03/07 09:37:50;;;;;;;8.18;5.22;;;;;;;10.94;45.02;93899.47;5030930;28;20029;-80
2023/03/07 09:40:22;;;;;;;9.70;5.60;;;;;;;11.10;44.47;93897.00;5030768;28;20553;-80
2023/03/07 09:42:56;;;;;;;9.98;5.70;;;;;;;11.25;43.99;93909.44;5029469;28;20033;-80
2023/03/07 09:45:37;;;;;;;20.30;5.78;;;;;;;11.86;43.94;93983.94;5029226;28;20034;-80
2023/03/07 09:48:24;;;;;;;11.38;5.30;;;;;;;11.74;43.77;93995.56;5030245;28;20034;-81
2023/03/07 09:50:55;;;;;;;12.27;5.50;;;;;;;11.53;43.56;93968.13;5029113;28;20037;-79
2023/03/07 09:53:35;;;;;;;11.85;5.72;;;;;;;11.22;43.77;93923.53;5013314;28;20083;-80
2023/03/07 09:56:02;;;;;;;14.60;5.70;;;;;;;11.68;43.44;93985.78;5029391;28;20037;-79
2023/03/07 09:58:28;;;;;;;9.23;5.05;;;;;;;11.44;43.84;93957.81;5029269;28;20038;-80
2023/03/07 10:01:00;;;;;;;8.77;5.15;;;;;;;11.12;42.75;93884.66;5029296;28;20112;-79
2023/03/07 10:03:28;;;;;;;11.30;5.03;;;;;;;11.67;42.62;93973.72;5013333;28;20036;-79
2023/03/07 10:05:56;;;;;;;7.50;4.80;;;;;;;10.98;43.04;93890.44;5030544;28;20067;-80
2023/03/07 10:08:27;;;;;;;9.82;4.55;;;;;;;11.61;42.74;93968.16;5029373;28;20124;-80
2023/03/07 10:11:07;;;;;;;9.57;4.85;;;;;;;11.28;43.57;93968.91;5030202;28;20034;-79
2023/03/07 10:13:48;;;;;;;11.43;5.20;;;;;;;11.44;43.45;93965.63;5034766;28;20034;-79
2023/03/07 10:16:45;;;;;;;9.70;4.80;;;;;;;10.93;43.91;93866.66;5033130;28;20092;-79
2023/03/07 10:19:48;;;;;;;10.68;4.88;;;;;;;11.37;43.32;93960.22;5033229;28;20112;-80
2023/03/07 10:22:38;;;;;;;11.52;4.82;;;;;;;11.36;42.56;93945.56;5033036;28;20113;-80
2023/03/07 10:25:42;;;;;;;6.60;4.10;;;;;;;11.70;42.51;93943.03;5017665;28;20049;-79
2023/03/07 10:28:21;;;;;;;7.10;4.22;;;;;;;11.52;41.12;93924.06;5034069;28;20610;-79
2023/03/07 10:30:48;;;;;;;8.23;4.45;;;;;;;11.63;41.72;93932.41;5032788;28;20029;-79
2023/03/07 10:33:17;;;;;;;6.90;4.05;;;;;;;11.93;41.46;93945.13;5032581;28;20102;-80
2023/03/07 10:35:43;;;;;;;6.88;4.35;;;;;;;11.42;40.97;93830.53;5032665;28;20060;-79
2023/03/07 10:38:15;;;;;;;9.95;4.28;;;;;;;12.27;40.05;93930.25;5034019;28;20053;-80
2023/03/07 10:40:47;;;;;;;6.85;3.80;;;;;;;12.00;39.84;93858.41;5032684;28;20029;-80
2023/03/07 10:43:19;;;;;;;;;;;;;;;12.48;39.39;93927.22;5001076;28;20033;-79
2023/03/07 10:45:44;;;;;;;6.28;3.63;;;;;;;11.87;38.06;93818.19;5033736;28;19917;-79
2023/03/07 10:48:15;;;;;;;8.30;4.00;;;;;;;12.00;38.70;93826.38;5033903;28;20037;-79
2023/03/07 10:50:44;;;;;;;6.38;4.00;;;;;;;12.23;38.35;93847.41;5016157;28;20469;-78
2023/03/07 10:53:39;;;;;;;5.43;3.50;;;;;;;12.75;37.54;93907.06;5032316;28;20049;-79
2023/03/07 10:56:15;;;;;;;9.95;3.70;;;;;;;12.31;36.85;93831.78;5031906;28;20132;-78
2023/03/07 10:59:00;;;;;;;5.55;3.53;;;;;;;12.80;36.71;93899.56;5031962;28;20049;-79
2023/03/07 11:01:27;;;;;;;4.82;2.95;;;;;;;12.70;35.85;93865.03;5033123;28;20050;-79
2023/03/07 11:03:55;;;;;;;5.40;3.47;;;;;;;12.72;37.88;93889.13;5031947;28;20036;-79
2023/03/07 11:06:48;;;;;;;7.22;3.70;;;;;;;11.75;39.19;93776.84;5033134;28;20025;-78
2023/03/07 11:09:17;;;;;;;8.20;3.85;;;;;;;12.44;39.26;93847.75;5033164;28;20041;-79
2023/03/07 11:11:47;;;;;;;6.95;3.92;;;;;;;12.66;38.65;93876.75;5031835;28;20037;-80
2023/03/07 11:14:13;;;;;;;6.07;3.83;;;;;;;11.87;38.33;93751.38;5033384;28;20037;-79
2023/03/07 11:16:40;;;;;;;6.85;3.83;;;;;;;12.23;37.74;93771.88;5033070;28;20033;-79
2023/03/07 11:19:27;;;;;;;7.10;3.45;;;;;;;12.20;37.91;93774.81;5032071;28;20060;-79
2023/03/07 11:21:53;;;;;;;5.07;3.58;;;;;;;12.08;37.18;93719.66;5031364;28;20029;-79
2023/03/07 11:24:24;;;;;;;6.20;3.95;;;;;;;12.96;37.62;93844.81;5032006;28;20034;-79
2023/03/07 11:26:52;;;;;;;7.63;3.60;;;;;;;12.72;37.42;93771.88;5015471;28;20036;-79
2023/03/07 11:29:18;;;;;;;8.95;3.92;;;;;;;12.83;37.28;93763.72;5032895;28;20041;-79
2023/03/07 11:32:22;;;;;;;7.75;3.63;;;;;;;12.86;36.63;93768.59;5032755;28;20091;-79
2023/03/07 11:35:02;;;;;;;9.20;3.63;;;;;;;12.83;36.54;93722.03;5031105;28;20077;-79